Time;durP1;ratioP1;P1;durP2;ratioP2;P2;SDS_P1;SDS_P2;PMS_P1;PMS_P2;Temp;Humidity;BMP_temperature;BMP_pressure;BME280_temperature;BME280_humidity;BME280_pressure;Samples;Min_cycle;Max_cycle;Signal;HPM_P1;HPM_P2
2024/01/25 00:02:03;;;;;;;77.10;38.97;;;5.10;88.50;;;;;;5027187;28;20048;-69
2024/01/25 00:04:30;;;;;;;72.82;45.15;;;5.00;88.70;;;;;;5025904;28;20045;-69
2024/01/25 00:06:58;;;;;;;89.80;49.85;;;5.00;89.10;;;;;;5051748;28;20033;-70
2024/01/25 00:09:25;;;;;;;60.10;37.42;;;4.90;89.60;;;;;;5048365;28;20044;-72
2024/01/25 00:11:53;;;;;;;72.25;42.88;;;4.80;88.40;;;;;;5030379;28;20140;-69
2024/01/25 00:14:20;;;;;;;71.93;41.38;;;4.30;88.80;;;;;;5031704;28;20106;-69
2024/01/25 00:16:48;;;;;;;85.53;42.88;;;4.30;90.00;;;;;;5036687;28;20030;-73
2024/01/25 00:19:15;;;;;;;66.18;36.75;;;4.50;90.20;;;;;;5042330;28;20048;-67
2024/01/25 00:21:44;;;;;;;58.08;34.08;;;4.70;89.00;;;;;;5049923;28;20441;-70
2024/01/25 00:24:12;;;;;;;66.90;36.85;;;4.70;88.70;;;;;;5046998;28;20041;-68
2024/01/25 00:26:41;;;;;;;65.00;36.72;;;4.60;88.40;;;;;;5049619;28;20419;-69
2024/01/25 00:29:11;;;;;;;64.57;37.88;;;4.50;89.40;;;;;;5038144;28;20037;-68
2024/01/25 00:31:38;;;;;;;56.78;34.55;;;4.70;89.20;;;;;;5017381;28;20528;-68
2024/01/25 00:34:06;;;;;;;59.70;30.52;;;4.70;88.50;;;;;;5035877;28;20443;-70
2024/01/25 00:36:33;;;;;;;49.60;30.52;;;4.70;88.00;;;;;;5041569;28;20041;-68
2024/01/25 00:39:01;;;;;;;48.50;30.08;;;4.80;88.00;;;;;;5051527;28;20055;-70
2024/01/25 00:41:31;;;;;;;47.67;29.63;;;4.80;87.60;;;;;;5024636;28;20034;-69
2024/01/25 00:43:59;;;;;;;;;;;4.90;88.10;;;;;;5037363;28;20464;-68
2024/01/25 00:46:26;;;;;;;46.78;28.85;;;4.90;88.10;;;;;;5037791;28;19921;-69
2024/01/25 00:48:54;;;;;;;48.55;30.88;;;5.00;88.10;;;;;;5037919;28;20052;-69
2024/01/25 00:51:25;;;;;;;55.08;32.15;;;5.00;88.00;;;;;;5036661;28;20033;-69
2024/01/25 00:53:53;;;;;;;61.58;32.78;;;5.00;88.70;;;;;;5040771;28;20391;-69
2024/01/25 00:56:20;;;;;;;54.35;31.10;;;5.00;88.60;;;;;;5035331;28;20029;-70
2024/01/25 00:58:48;;;;;;;50.63;28.67;;;5.00;88.40;;;;;;5044858;28;20079;-69
2024/01/25 01:01:16;;;;;;;45.85;28.23;;;4.80;88.90;;;;;;5042411;28;20065;-70
2024/01/25 01:03:43;;;;;;;47.80;27.23;;;4.90;89.10;;;;;;5050512;28;20094;-70
2024/01/25 01:06:11;;;;;;;45.70;28.05;;;4.70;89.20;;;;;;5050950;28;20041;-69
2024/01/25 01:08:39;;;;;;;42.78;26.42;;;4.80;89.50;;;;;;5050968;28;20040;-70
2024/01/25 01:11:06;;;;;;;44.35;27.15;;;4.90;89.40;;;;;;5033249;28;20141;-69
2024/01/25 01:13:33;;;;;;;41.13;24.83;;;4.80;89.00;;;;;;5051054;28;20086;-69
2024/01/25 01:16:00;;;;;;;39.17;25.05;;;5.00;88.60;;;;;;5047755;28;20446;-71
2024/01/25 01:18:28;;;;;;;31.63;22.63;;;5.10;88.00;;;;;;5043129;28;20049;-70
2024/01/25 01:20:56;;;;;;;45.53;25.92;;;5.00;87.70;;;;;;5035237;28;20041;-70
2024/01/25 01:23:23;;;;;;;38.70;23.52;;;4.50;88.80;;;;;;5038150;28;20112;-71
2024/01/25 01:25:50;;;;;;;35.33;23.55;;;4.20;90.30;;;;;;5035005;28;20048;-68
2024/01/25 01:28:17;;;;;;;37.53;23.90;;;4.00;90.20;;;;;;5038352;28;20567;-68
2024/01/25 01:30:45;;;;;;;42.10;23.45;;;3.90;90.80;;;;;;5049123;28;20064;-69
2024/01/25 01:33:13;;;;;;;38.75;24.13;;;3.90;90.60;;;;;;5046293;28;20091;-70
2024/01/25 01:35:40;;;;;;;41.97;23.52;;;3.90;91.30;;;;;;5041096;28;20037;-72
2024/01/25 01:38:08;;;;;;;39.00;23.83;;;4.20;90.60;;;;;;5036114;28;20064;-71
2024/01/25 01:40:35;;;;;;;36.05;22.52;;;4.40;90.50;;;;;;5047311;28;20040;-71
2024/01/25 01:43:03;;;;;;;36.85;23.88;;;4.60;90.10;;;;;;5044350;28;20084;-71
2024/01/25 01:45:30;;;;;;;40.92;24.10;;;4.50;90.10;;;;;;5048147;28;20410;-71
2024/01/25 01:47:59;;;;;;;39.72;24.90;;;4.60;90.10;;;;;;5043766;28;20357;-70
2024/01/25 01:50:27;;;;;;;37.78;25.02;;;4.70;89.80;;;;;;5033111;28;20037;-70
2024/01/25 01:52:55;;;;;;;40.30;24.15;;;4.80;89.20;;;;;;5039354;28;20040;-72
2024/01/25 01:55:23;;;;;;;36.47;23.55;;;4.80;88.70;;;;;;5040973;28;20087;-71
2024/01/25 01:57:51;;;;;;;40.28;24.15;;;4.70;89.40;;;;;;5039489;28;20044;-70
2024/01/25 02:00:20;;;;;;;36.83;23.38;;;4.60;89.80;;;;;;5050110;28;20057;-69
2024/01/25 02:02:48;;;;;;;39.25;25.02;;;4.80;89.00;;;;;;5050619;28;20061;-71
2024/01/25 02:05:16;;;;;;;43.58;25.23;;;4.80;88.50;;;;;;5049919;28;20518;-70
2024/01/25 02:07:43;;;;;;;39.03;25.65;;;5.00;88.50;;;;;;5033543;28;20136;-70
2024/01/25 02:10:11;;;;;;;42.22;25.52;;;5.10;87.90;;;;;;5049056;28;20040;-70
2024/01/25 02:12:39;;;;;;;43.97;25.80;;;4.30;89.40;;;;;;5033010;28;20060;-69
2024/01/25 02:15:07;;;;;;;40.45;26.73;;;3.90;90.90;;;;;;5050252;28;20091;-69
2024/01/25 02:17:34;;;;;;;47.90;27.80;;;3.90;91.20;;;;;;5019718;28;20044;-71
2024/01/25 02:20:03;;;;;;;40.70;27.33;;;4.00;91.20;;;;;;5053994;28;20041;-69
2024/01/25 02:22:30;;;;;;;44.47;27.95;;;4.00;91.20;;;;;;5054263;28;20086;-71
2024/01/25 02:24:58;;;;;;;47.10;28.05;;;4.10;91.20;;;;;;5041197;28;20059;-72
2024/01/25 02:27:25;;;;;;;38.45;23.17;;;4.10;91.30;;;;;;5054043;28;20048;-70
2024/01/25 02:29:53;;;;;;;42.28;25.13;;;3.80;91.60;;;;;;5054214;28;20033;-69
2024/01/25 02:32:20;;;;;;;43.67;25.75;;;3.90;91.50;;;;;;5049768;28;20037;-69
2024/01/25 02:34:47;;;;;;;39.08;25.40;;;4.40;91.00;;;;;;5048732;28;20118;-69
2024/01/25 02:37:15;;;;;;;36.42;24.17;;;4.60;90.80;;;;;;5052222;28;20392;-70
2024/01/25 02:39:43;;;;;;;40.30;24.70;;;4.70;90.30;;;;;;5028987;28;20601;-70
2024/01/25 02:42:10;;;;;;;37.08;23.38;;;4.90;89.80;;;;;;5049800;28;20065;-71
2024/01/25 02:44:38;;;;;;;41.42;24.27;;;5.00;88.60;;;;;;5049715;28;20039;-70
2024/01/25 02:47:05;;;;;;;33.80;22.63;;;4.60;89.30;;;;;;5037206;28;20112;-69
2024/01/25 02:49:32;;;;;;;31.85;22.10;;;4.30;90.10;;;;;;5034101;28;20057;-70
2024/01/25 02:52:00;;;;;;;34.63;21.52;;;4.60;90.00;;;;;;5034009;28;20045;-70
2024/01/25 02:54:27;;;;;;;33.72;22.23;;;4.80;89.10;;;;;;5032487;28;20117;-71
2024/01/25 02:56:55;;;;;;;33.13;21.65;;;4.90;89.10;;;;;;5048427;28;20033;-71
2024/01/25 02:59:22;;;;;;;33.08;21.08;;;5.00;88.80;;;;;;5053785;28;20033;-70
2024/01/25 03:01:49;;;;;;;32.97;20.15;;;5.10;88.40;;;;;;5052962;28;20058;-70
2024/01/25 03:04:17;;;;;;;35.08;20.75;;;5.20;87.50;;;;;;5053608;28;20047;-70
2024/01/25 03:06:45;;;;;;;32.42;20.92;;;5.20;86.70;;;;;;5053366;28;20044;-70
2024/01/25 03:09:13;;;;;;;23.60;17.25;;;5.10;87.80;;;;;;5053304;28;20354;-71
2024/01/25 03:11:40;;;;;;;26.77;17.25;;;4.90;86.90;;;;;;5052571;28;20393;-70
2024/01/25 03:14:07;;;;;;;25.67;17.52;;;4.50;87.70;;;;;;5053085;28;20047;-69
2024/01/25 03:16:34;;;;;;;23.52;16.63;;;4.60;88.70;;;;;;5032045;28;20513;-71
2024/01/25 03:19:02;;;;;;;26.27;17.92;;;4.80;88.70;;;;;;5044551;28;20061;-69
2024/01/25 03:21:29;;;;;;;24.23;16.85;;;5.00;88.10;;;;;;5052260;28;20056;-69
2024/01/25 03:23:57;;;;;;;21.95;16.55;;;5.00;88.00;;;;;;5052873;28;20041;-68
2024/01/25 03:26:27;;;;;;;24.55;14.57;;;5.10;87.40;;;;;;5052923;28;20421;-72
2024/01/25 03:28:54;;;;;;;24.52;14.65;;;5.00;86.40;;;;;;5051237;28;20037;-71
2024/01/25 03:31:22;;;;;;;20.92;13.55;;;5.00;86.70;;;;;;5052734;28;20112;-69
2024/01/25 03:33:49;;;;;;;19.88;13.35;;;5.00;87.10;;;;;;5051850;28;20376;-69
2024/01/25 03:36:17;;;;;;;20.65;14.57;;;5.00;86.20;;;;;;5052677;28;20415;-69
2024/01/25 03:38:44;;;;;;;18.08;13.38;;;5.00;85.70;;;;;;5051452;28;20125;-68
2024/01/25 03:41:11;;;;;;;23.60;14.48;;;5.00;85.30;;;;;;5051654;28;20037;-70
2024/01/25 03:43:39;;;;;;;19.00;14.18;;;4.90;85.50;;;;;;5050496;28;20517;-69
2024/01/25 03:46:11;;;;;;;19.83;12.90;;;4.30;87.10;;;;;;5033144;28;20038;-69
2024/01/25 03:48:39;;;;;;;20.77;13.77;;;3.90;89.40;;;;;;5043368;28;20037;-70
2024/01/25 03:51:07;;;;;;;25.20;14.05;;;4.10;89.20;;;;;;5032541;28;20488;-70
2024/01/25 03:53:34;;;;;;;18.73;12.90;;;4.30;88.30;;;;;;5015335;28;20091;-72
2024/01/25 03:56:02;;;;;;;17.60;13.35;;;4.30;88.40;;;;;;5040128;28;20031;-70
2024/01/25 03:58:29;;;;;;;18.10;14.13;;;4.50;88.00;;;;;;5052456;28;20054;-70
2024/01/25 04:00:56;;;;;;;31.30;19.23;;;4.60;87.90;;;;;;5052260;28;20486;-71
2024/01/25 04:03:24;;;;;;;34.75;21.20;;;4.40;90.00;;;;;;5052180;28;20041;-68
2024/01/25 04:05:51;;;;;;;40.08;23.05;;;4.30;90.80;;;;;;5052322;28;20380;-72
2024/01/25 04:08:19;;;;;;;37.70;23.58;;;4.10;91.30;;;;;;5052020;28;20045;-70
2024/01/25 04:10:46;;;;;;;43.58;23.10;;;4.10;91.40;;;;;;5052016;28;20069;-70
2024/01/25 04:13:13;;;;;;;38.75;23.08;;;4.10;91.50;;;;;;5051333;28;20060;-68
2024/01/25 04:15:41;;;;;;;40.42;24.27;;;4.20;91.60;;;;;;5052189;28;20036;-68
2024/01/25 04:18:08;;;;;;;34.45;22.27;;;4.00;91.50;;;;;;5051582;28;20040;-70
2024/01/25 04:20:36;;;;;;;35.58;22.02;;;4.00;91.60;;;;;;5023364;28;20066;-68
2024/01/25 04:23:04;;;;;;;38.67;23.00;;;4.00;91.90;;;;;;5037135;28;20468;-70
2024/01/25 04:25:31;;;;;;;36.53;23.95;;;4.30;91.60;;;;;;5051987;28;20064;-72
2024/01/25 04:28:01;;;;;;;41.08;22.95;;;4.50;91.40;;;;;;5045525;28;20033;-70
2024/01/25 04:30:30;;;;;;;35.38;22.55;;;4.50;91.40;;;;;;5032324;28;20465;-71
2024/01/25 04:32:59;;;;;;;37.90;23.75;;;4.40;91.40;;;;;;5032112;28;20038;-70
2024/01/25 04:35:27;;;;;;;37.85;24.58;;;4.30;91.60;;;;;;5045079;28;20036;-68
2024/01/25 04:37:54;;;;;;;33.58;23.00;;;4.30;91.80;;;;;;5050465;28;20036;-73
2024/01/25 04:40:22;;;;;;;36.10;22.67;;;4.30;91.80;;;;;;5050434;28;20098;-73
2024/01/25 04:42:49;;;;;;;39.08;23.35;;;4.40;91.70;;;;;;5051769;28;20357;-70
2024/01/25 04:45:17;;;;;;;44.65;23.98;;;4.50;91.50;;;;;;5051041;28;20044;-70
2024/01/25 04:47:44;;;;;;;41.13;24.20;;;4.60;91.40;;;;;;5051564;28;20037;-71
2024/01/25 04:50:11;;;;;;;34.45;22.50;;;4.70;91.30;;;;;;5032969;28;20033;-71
2024/01/25 04:52:39;;;;;;;34.58;22.63;;;4.70;91.40;;;;;;5043938;28;20147;-70
2024/01/25 04:55:07;;;;;;;39.25;22.13;;;4.50;91.30;;;;;;5038118;28;20047;-70
2024/01/25 04:57:34;;;;;;;30.15;20.67;;;4.30;91.50;;;;;;5038301;28;20040;-70
2024/01/25 05:00:03;;;;;;;31.98;20.17;;;4.00;92.20;;;;;;5050441;28;20059;-71
2024/01/25 05:02:31;;;;;;;29.17;20.40;;;4.30;92.20;;;;;;5031589;28;20045;-71
2024/01/25 05:04:58;;;;;;;33.35;20.80;;;4.20;91.80;;;;;;5039631;28;20068;-71
2024/01/25 05:07:25;;;;;;;33.97;21.15;;;3.90;92.20;;;;;;5042887;28;20033;-70
2024/01/25 05:09:57;;;;;;;32.88;22.02;;;4.20;92.10;;;;;;5046520;28;20095;-71
2024/01/25 05:12:24;;;;;;;32.20;21.65;;;4.10;91.80;;;;;;5050964;28;20123;-72
2024/01/25 05:14:51;;;;;;;31.55;20.85;;;4.10;92.20;;;;;;5050497;28;20037;-70
2024/01/25 05:17:19;;;;;;;29.75;21.75;;;4.30;91.80;;;;;;5041001;28;20087;-71
2024/01/25 05:19:46;;;;;;;36.20;22.17;;;4.40;91.60;;;;;;5034872;28;20108;-68
2024/01/25 05:22:14;;;;;;;34.00;21.83;;;4.50;91.50;;;;;;5040649;28;20087;-69
2024/01/25 05:24:41;;;;;;;37.75;23.45;;;4.50;91.40;;;;;;5044161;28;20042;-70
2024/01/25 05:27:09;;;;;;;36.80;22.67;;;4.40;91.50;;;;;;5042247;28;20064;-70
2024/01/25 05:29:36;;;;;;;31.70;22.40;;;4.20;91.70;;;;;;5050095;28;20047;-68
2024/01/25 05:32:03;;;;;;;41.85;23.25;;;4.10;92.10;;;;;;5042324;28;20465;-69
2024/01/25 05:34:31;;;;;;;32.90;22.20;;;4.10;92.30;;;;;;5045374;28;20064;-70
2024/01/25 05:36:58;;;;;;;37.50;22.75;;;4.30;92.10;;;;;;5026270;28;20025;-70
2024/01/25 05:39:26;;;;;;;38.13;23.48;;;4.30;91.90;;;;;;5046921;28;20033;-69
2024/01/25 05:41:53;;;;;;;39.20;22.13;;;4.20;92.10;;;;;;5045231;28;20036;-71
2024/01/25 05:44:20;;;;;;;39.42;22.52;;;4.10;92.10;;;;;;5042606;28;20380;-68
2024/01/25 05:46:48;;;;;;;39.60;23.55;;;4.30;92.10;;;;;;5037475;28;20471;-71
2024/01/25 05:49:15;;;;;;;33.42;24.17;;;4.20;92.30;;;;;;5021307;28;20124;-71
2024/01/25 05:51:43;;;;;;;37.28;25.08;;;4.40;92.30;;;;;;5040690;28;20121;-70
2024/01/25 05:54:10;;;;;;;35.88;24.05;;;4.40;92.50;;;;;;5036823;28;20041;-71
2024/01/25 05:56:37;;;;;;;40.03;25.42;;;4.10;92.80;;;;;;5022648;28;20369;-72
2024/01/25 05:59:05;;;;;;;40.53;23.60;;;4.30;93.00;;;;;;5042366;28;20116;-71
2024/01/25 06:01:32;;;;;;;53.05;30.52;;;4.20;93.10;;;;;;5041204;28;20108;-71
2024/01/25 06:04:00;;;;;;;91.18;49.72;;;4.90;94.60;;;;;;5052225;28;20045;-71
2024/01/25 06:06:27;;;;;;;49.15;30.13;;;5.30;94.00;;;;;;5041065;28;20084;-74
2024/01/25 06:08:55;;;;;;;48.15;31.13;;;5.30;92.20;;;;;;5047665;28;20120;-73
2024/01/25 06:11:37;;;;;;;42.22;26.40;;;5.30;92.80;;;;;;5018153;28;20140;-70
2024/01/25 06:14:09;;;;;;;44.00;26.58;;;5.60;92.40;;;;;;5022523;28;20061;-73
2024/01/25 06:16:36;;;;;;;26.90;20.05;;;5.50;91.10;;;;;;5035200;28;20064;-71
2024/01/25 06:19:04;;;;;;;32.10;19.80;;;5.30;90.60;;;;;;5037881;28;20033;-72
2024/01/25 06:21:33;;;;;;;29.55;20.48;;;5.10;90.30;;;;;;5034544;28;20044;-70
2024/01/25 06:24:02;;;;;;;31.52;20.65;;;5.00;90.30;;;;;;5043184;28;20033;-71
2024/01/25 06:26:30;;;;;;;29.90;19.95;;;4.90;90.30;;;;;;5022986;28;20400;-73
2024/01/25 06:28:57;;;;;;;27.30;17.90;;;4.80;90.40;;;;;;5035265;28;20124;-72
2024/01/25 06:31:25;;;;;;;31.63;19.27;;;4.80;90.20;;;;;;5052855;28;20055;-72
2024/01/25 06:33:53;;;;;;;28.42;18.65;;;4.80;90.40;;;;;;5052520;28;20044;-71
2024/01/25 06:36:20;;;;;;;35.20;20.90;;;4.80;90.40;;;;;;5053561;28;20040;-72
2024/01/25 06:38:48;;;;;;;33.70;18.75;;;4.60;90.60;;;;;;5052786;28;20069;-71
2024/01/25 06:41:16;;;;;;;33.65;20.15;;;4.60;90.70;;;;;;5032943;28;20116;-71
2024/01/25 06:43:43;;;;;;;32.22;20.17;;;4.70;90.80;;;;;;5037117;28;20425;-71
2024/01/25 06:46:11;;;;;;;32.75;19.88;;;4.60;90.80;;;;;;5046082;28;20063;-72
2024/01/25 06:48:38;;;;;;;35.92;22.25;;;4.40;90.90;;;;;;5041360;28;20049;-72
2024/01/25 06:51:06;;;;;;;35.58;22.60;;;4.20;91.20;;;;;;5030706;28;20380;-74
2024/01/25 06:53:33;;;;;;;35.28;23.10;;;4.30;91.50;;;;;;5040140;28;20033;-71
2024/01/25 06:56:00;;;;;;;42.88;23.63;;;4.50;91.60;;;;;;5037110;28;20087;-74
2024/01/25 06:58:28;;;;;;;39.35;25.55;;;4.50;91.50;;;;;;5051726;28;20449;-73
2024/01/25 07:00:56;;;;;;;41.15;24.85;;;4.20;91.70;;;;;;5033698;28;20573;-72
2024/01/25 07:03:23;;;;;;;42.60;24.27;;;4.30;92.70;;;;;;5045190;28;20036;-71
2024/01/25 07:05:51;;;;;;;36.95;23.40;;;4.10;92.10;;;;;;5042274;28;20200;-73
2024/01/25 07:08:19;;;;;;;36.30;23.02;;;4.20;92.10;;;;;;5037967;28;20033;-72
2024/01/25 07:10:46;;;;;;;36.28;22.10;;;4.20;91.90;;;;;;5042551;28;20125;-72
2024/01/25 07:13:14;;;;;;;37.38;21.77;;;4.10;92.00;;;;;;5046567;28;20549;-74
2024/01/25 07:15:41;;;;;;;32.35;22.45;;;4.10;91.80;;;;;;5043761;28;20387;-73
2024/01/25 07:18:08;;;;;;;35.28;22.58;;;4.00;91.90;;;;;;5036494;28;20040;-72
2024/01/25 07:20:36;;;;;;;42.95;23.88;;;4.30;92.00;;;;;;5037313;28;20487;-72
2024/01/25 07:23:04;;;;;;;41.22;23.52;;;4.00;92.00;;;;;;5041952;28;20064;-74
2024/01/25 07:25:31;;;;;;;43.22;25.58;;;4.10;92.10;;;;;;5053000;28;20079;-73
2024/01/25 07:27:59;;;;;;;43.97;25.60;;;4.40;92.50;;;;;;5042316;28;20084;-73
2024/01/25 07:30:26;;;;;;;36.40;23.90;;;4.40;92.60;;;;;;5052879;28;20116;-72
2024/01/25 07:32:53;;;;;;;33.50;20.70;;;4.50;92.20;;;;;;5040224;28;20041;-72
2024/01/25 07:35:23;;;;;;;29.98;20.13;;;4.20;92.10;;;;;;5034143;28;20044;-73
2024/01/25 07:37:51;;;;;;;32.40;19.70;;;4.30;92.20;;;;;;5033520;28;20042;-72
2024/01/25 07:40:18;;;;;;;32.20;19.45;;;4.50;92.20;;;;;;5034136;28;20314;-72
2024/01/25 07:42:47;;;;;;;34.63;19.95;;;4.40;91.90;;;;;;5042318;28;20037;-73
2024/01/25 07:45:14;;;;;;;30.00;19.63;;;4.40;92.10;;;;;;5035113;28;20492;-72
2024/01/25 07:47:43;;;;;;;29.67;19.00;;;4.60;92.00;;;;;;5036528;28;20238;-74
2024/01/25 07:50:11;;;;;;;30.70;18.90;;;4.80;91.10;;;;;;5036604;28;20451;-73
2024/01/25 07:52:39;;;;;;;31.77;19.10;;;4.80;90.90;;;;;;5052721;28;20037;-73
2024/01/25 07:55:07;;;;;;;26.42;19.00;;;5.00;91.00;;;;;;5033355;28;20426;-72
2024/01/25 07:57:35;;;;;;;28.65;17.95;;;5.00;90.80;;;;;;5052083;28;20043;-73
2024/01/25 08:00:04;;;;;;;34.55;19.52;;;4.80;90.90;;;;;;5030998;28;20484;-72
2024/01/25 08:02:31;;;;;;;30.83;19.88;;;5.00;90.80;;;;;;5040378;28;20029;-72
2024/01/25 08:04:59;;;;;;;29.75;18.52;;;5.20;90.60;;;;;;5043459;28;20060;-73
2024/01/25 08:07:26;;;;;;;27.75;19.20;;;5.10;90.30;;;;;;5041067;28;20403;-71
2024/01/25 08:09:57;;;;;;;33.85;20.77;;;4.90;90.60;;;;;;5043926;28;20040;-74
2024/01/25 08:12:25;;;;;;;31.83;19.73;;;4.70;91.40;;;;;;5042520;28;20038;-74
2024/01/25 08:14:53;;;;;;;30.92;20.58;;;4.50;91.80;;;;;;5030673;28;20136;-72
2024/01/25 08:17:20;;;;;;;39.40;20.10;;;4.70;91.90;;;;;;5042447;28;20114;-75
2024/01/25 08:19:47;;;;;;;27.92;19.85;;;4.90;91.30;;;;;;5047660;28;20108;-72
2024/01/25 08:22:18;;;;;;;27.00;19.17;;;4.90;91.00;;;;;;5050889;28;20388;-72
2024/01/25 08:24:49;;;;;;;30.10;18.52;;;5.20;90.70;;;;;;5045804;28;20037;-74
2024/01/25 08:27:17;;;;;;;27.25;19.13;;;5.50;90.20;;;;;;5040802;28;20037;-74
2024/01/25 08:29:45;;;;;;;26.77;18.65;;;5.70;89.40;;;;;;5032217;28;20083;-72
2024/01/25 08:32:13;;;;;;;28.92;19.40;;;5.90;88.50;;;;;;5046460;28;20056;-73
2024/01/25 08:34:40;;;;;;;27.60;18.23;;;5.70;89.00;;;;;;5047698;28;20119;-73
2024/01/25 08:37:07;;;;;;;32.92;20.63;;;6.00;88.90;;;;;;5047505;28;20067;-72
2024/01/25 08:39:35;;;;;;;34.33;21.65;;;6.10;88.90;;;;;;5051746;28;20354;-72
2024/01/25 08:42:05;;;;;;;33.60;22.40;;;6.20;88.70;;;;;;5047158;28;20366;-73
2024/01/25 08:44:52;;;;;;;48.03;25.77;;;6.20;88.60;;;;;;5047376;28;20415;-73
2024/01/25 08:47:38;;;;;;;45.45;27.92;;;5.90;89.70;;;;;;5047643;28;20051;-75
2024/01/25 08:50:10;;;;;;;48.65;28.65;;;6.00;90.10;;;;;;5036631;28;20037;-74
2024/01/25 08:52:40;;;;;;;50.70;30.13;;;6.10;90.00;;;;;;5051616;28;20048;-72
2024/01/25 08:55:09;;;;;;;54.67;29.55;;;6.30;89.80;;;;;;5047187;28;20059;-74
2024/01/25 08:57:37;;;;;;;42.65;27.00;;;6.40;89.30;;;;;;5049349;28;20033;-72
2024/01/25 09:00:10;;;;;;;41.10;26.63;;;6.10;89.30;;;;;;5046800;28;20421;-74
2024/01/25 09:02:38;;;;;;;40.88;25.85;;;6.20;89.10;;;;;;5032095;28;20095;-73
2024/01/25 09:05:06;;;;;;;45.15;26.60;;;6.10;89.00;;;;;;5047918;28;20035;-75
2024/01/25 09:07:34;;;;;;;43.78;27.33;;;6.30;89.20;;;;;;5035616;28;20044;-71
2024/01/25 09:10:02;;;;;;;45.35;27.45;;;6.50;88.70;;;;;;5018117;28;20067;-75
2024/01/25 09:12:32;;;;;;;46.78;28.90;;;6.50;88.40;;;;;;5039097;28;20119;-74
2024/01/25 09:14:59;;;;;;;51.80;29.55;;;6.60;88.30;;;;;;5046612;28;20045;-73
2024/01/25 09:17:27;;;;;;;52.60;31.00;;;6.30;89.40;;;;;;5039115;28;20036;-72
2024/01/25 09:19:54;;;;;;;54.97;31.60;;;6.30;90.00;;;;;;5022834;28;20449;-72
2024/01/25 09:22:22;;;;;;;56.75;35.67;;;6.10;90.30;;;;;;5010822;28;20033;-74
2024/01/25 09:24:50;;;;;;;63.22;36.25;;;6.30;90.40;;;;;;5037713;28;20492;-72
2024/01/25 09:27:18;;;;;;;60.17;36.53;;;6.00;90.50;;;;;;5028553;28;20498;-75
2024/01/25 09:29:45;;;;;;;55.35;34.30;;;5.90;90.90;;;;;;5040650;28;20040;-73
2024/01/25 09:32:12;;;;;;;51.95;31.65;;;6.10;90.80;;;;;;5038145;28;20396;-75
2024/01/25 09:34:40;;;;;;;51.03;32.35;;;6.30;90.20;;;;;;5029534;28;20083;-75
2024/01/25 09:37:07;;;;;;;49.28;30.65;;;6.10;90.00;;;;;;5041456;28;20662;-73
2024/01/25 09:39:35;;;;;;;52.47;29.85;;;6.10;90.40;;;;;;5028355;28;20044;-75
2024/01/25 09:42:04;;;;;;;50.13;31.58;;;6.00;90.30;;;;;;5044038;28;20053;-75
2024/01/25 09:44:32;;;;;;;47.08;28.77;;;6.20;90.30;;;;;;5032740;28;20055;-73
2024/01/25 09:47:05;;;;;;;39.50;27.25;;;6.20;90.00;;;;;;5046294;28;20124;-74
2024/01/25 09:49:33;;;;;;;40.45;27.85;;;6.60;92.10;;;;;;5040700;28;20040;-74
2024/01/25 09:52:03;;;;;;;48.53;29.65;;;6.80;90.10;;;;;;5033611;28;20037;-74
2024/01/25 09:54:35;;;;;;;46.10;29.02;;;6.80;88.70;;;;;;5036521;28;20041;-74
2024/01/25 09:57:12;;;;;;;52.33;29.50;;;7.00;90.50;;;;;;5037357;28;20041;-74
2024/01/25 09:59:40;;;;;;;59.30;31.05;;;7.20;88.40;;;;;;5029010;28;20098;-75
2024/01/25 10:02:09;;;;;;;50.50;31.08;;;7.10;90.40;;;;;;5045565;28;20031;-74
2024/01/25 10:04:37;;;;;;;48.88;30.63;;;7.30;88.50;;;;;;5022649;28;20063;-74
2024/01/25 10:07:04;;;;;;;42.53;28.13;;;7.50;88.00;;;;;;5049717;28;20029;-74
2024/01/25 10:09:45;;;;;;;47.72;30.00;;;7.60;87.80;;;;;;5035485;28;20439;-73
2024/01/25 10:12:12;;;;;;;45.57;28.17;;;7.80;87.60;;;;;;5038420;28;20045;-74
2024/01/25 10:14:45;;;;;;;44.88;29.95;;;8.10;86.80;;;;;;5046290;28;20380;-72
2024/01/25 10:17:12;;;;;;;43.38;30.00;;;8.30;86.10;;;;;;5047265;28;20037;-73
2024/01/25 10:19:44;;;;;;;48.70;29.35;;;8.60;85.00;;;;;;5046310;28;20037;-74
2024/01/25 10:22:14;;;;;;;54.13;31.10;;;8.60;84.20;;;;;;5049738;28;20076;-74
2024/01/25 10:24:42;;;;;;;48.22;29.80;;;8.90;83.60;;;;;;5027574;28;20038;-74
2024/01/25 10:27:11;;;;;;;56.65;30.75;;;8.20;83.60;;;;;;5022076;28;20200;-74
2024/01/25 10:29:38;;;;;;;46.78;32.05;;;8.30;85.90;;;;;;5026687;28;20435;-75
2024/01/25 10:32:07;;;;;;;48.17;31.17;;;7.80;85.50;;;;;;5041342;28;20057;-73
2024/01/25 10:34:38;;;;;;;48.00;30.52;;;7.60;85.90;;;;;;5049761;28;20037;-74
2024/01/25 10:37:07;;;;;;;47.90;32.10;;;7.50;86.60;;;;;;5041214;28;20080;-73
2024/01/25 10:39:35;;;;;;;48.47;30.58;;;7.20;87.40;;;;;;5036280;28;20064;-72
2024/01/25 10:42:04;;;;;;;45.50;30.42;;;7.30;87.40;;;;;;5045681;28;20037;-74
2024/01/25 10:44:31;;;;;;;48.70;31.02;;;7.40;87.00;;;;;;5050456;28;20111;-75
2024/01/25 10:47:00;;;;;;;52.58;30.88;;;6.90;87.70;;;;;;5048493;28;20067;-75
2024/01/25 10:49:29;;;;;;;48.03;31.30;;;7.10;87.70;;;;;;5036877;28;20124;-74
2024/01/25 10:51:56;;;;;;;48.85;32.22;;;6.80;88.40;;;;;;5035101;28;20061;-73
2024/01/25 10:54:24;;;;;;;59.00;32.78;;;6.90;88.90;;;;;;5034524;28;20041;-74
2024/01/25 10:56:53;;;;;;;51.03;31.15;;;7.00;89.30;;;;;;5040564;28;20046;-74
2024/01/25 10:59:21;;;;;;;50.83;32.53;;;7.10;89.10;;;;;;5051352;28;20025;-75
2024/01/25 11:01:48;;;;;;;51.35;31.70;;;7.10;88.30;;;;;;5049004;28;20047;-73
2024/01/25 11:04:16;;;;;;;52.83;32.60;;;7.20;89.30;;;;;;5045478;28;20400;-74
2024/01/25 11:06:47;;;;;;;54.75;32.00;;;7.10;88.60;;;;;;5025917;28;20044;-76
2024/01/25 11:09:20;;;;;;;45.35;28.98;;;6.90;89.50;;;;;;5046827;28;20041;-73
2024/01/25 11:11:49;;;;;;;56.83;32.03;;;7.10;89.10;;;;;;5027210;28;20049;-75
2024/01/25 11:14:19;;;;;;;54.30;31.58;;;7.00;89.30;;;;;;5006581;28;20048;-74
2024/01/25 11:16:47;;;;;;;50.23;31.70;;;7.30;89.10;;;;;;5025637;28;20083;-76
2024/01/25 11:19:21;;;;;;;55.00;31.75;;;7.30;88.60;;;;;;5008797;28;20123;-73
2024/01/25 11:21:50;;;;;;;50.08;29.63;;;7.20;88.50;;;;;;5029547;28;20557;-75
2024/01/25 11:24:27;;;;;;;52.40;32.08;;;7.40;88.00;;;;;;5010953;28;20494;-76
2024/01/25 11:26:55;;;;;;;54.33;31.85;;;7.60;87.70;;;;;;5028508;28;20033;-76
2024/01/25 11:29:23;;;;;;;48.70;30.30;;;7.80;88.70;;;;;;4996249;28;20128;-76
2024/01/25 11:31:52;;;;;;;47.75;30.27;;;7.90;88.70;;;;;;5008656;28;20050;-75
2024/01/25 11:34:20;;;;;;;47.50;31.80;;;7.80;89.30;;;;;;5006144;28;20393;-74
2024/01/25 11:36:48;;;;;;;55.97;30.95;;;7.70;89.00;;;;;;5004059;28;20042;-74
2024/01/25 11:39:16;;;;;;;53.95;33.83;;;7.70;89.60;;;;;;5031721;28;20044;-73
2024/01/25 11:41:44;;;;;;;54.83;31.13;;;7.40;90.10;;;;;;5028501;28;20078;-73
2024/01/25 11:44:15;;;;;;;49.83;29.73;;;7.40;90.90;;;;;;5003354;28;20033;-74
2024/01/25 11:46:43;;;;;;;;;;;7.70;90.90;;;;;;5025564;28;20381;-75
2024/01/25 11:49:10;;;;;;;36.17;25.35;;;8.00;91.00;;;;;;5016914;28;20258;-76
2024/01/25 11:51:38;;;;;;;36.38;24.35;;;8.20;90.40;;;;;;5026498;28;20477;-75
2024/01/25 11:54:06;;;;;;;36.67;20.35;;;8.50;90.10;;;;;;5029173;28;20039;-74
2024/01/25 11:56:40;;;;;;;28.52;18.55;;;8.80;90.40;;;;;;5012472;28;20042;-75
2024/01/25 11:59:10;;;;;;;18.88;13.88;;;9.10;90.30;;;;;;4994866;28;20050;-74
2024/01/25 12:01:39;;;;;;;17.40;11.40;;;9.40;89.80;;;;;;5012309;28;20124;-76
2024/01/25 12:04:07;;;;;;;16.70;10.10;;;9.60;88.60;;;;;;5012751;28;20041;-77
2024/01/25 12:06:35;;;;;;;13.05;7.70;;;9.80;88.80;;;;;;5027091;28;20030;-75
2024/01/25 12:09:10;;;;;;;8.75;5.30;;;9.90;88.20;;;;;;5023525;28;20045;-73
2024/01/25 12:11:40;;;;;;;7.38;5.00;;;9.90;87.70;;;;;;5031138;28;20044;-74
2024/01/25 12:14:09;;;;;;;8.18;4.72;;;10.00;87.70;;;;;;5041548;28;20037;-76
2024/01/25 12:16:37;;;;;;;8.13;4.63;;;10.00;87.70;;;;;;5044371;28;20041;-76
2024/01/25 12:19:06;;;;;;;7.25;4.88;;;9.90;88.40;;;;;;5052106;28;20029;-76
2024/01/25 12:21:35;;;;;;;7.82;5.20;;;9.80;88.40;;;;;;5051989;28;20041;-75
2024/01/25 12:24:03;;;;;;;9.15;5.47;;;9.70;88.70;;;;;;5052344;28;20379;-74
2024/01/25 12:26:35;;;;;;;8.35;5.30;;;9.70;89.10;;;;;;5038892;28;20129;-76
2024/01/25 12:29:03;;;;;;;10.02;5.05;;;9.60;90.20;;;;;;5050717;28;20044;-74
2024/01/25 12:31:30;;;;;;;7.25;5.30;;;9.70;90.00;;;;;;5050829;28;20389;-75
2024/01/25 12:34:00;;;;;;;7.97;6.20;;;9.50;89.90;;;;;;5031815;28;20113;-75
2024/01/25 12:36:28;;;;;;;7.87;6.20;;;9.70;89.50;;;;;;5039881;28;20079;-75
2024/01/25 12:38:55;;;;;;;8.75;5.35;;;9.60;89.90;;;;;;5033520;28;20057;-76
2024/01/25 12:41:23;;;;;;;7.05;5.10;;;9.60;89.30;;;;;;5050233;28;20047;-76
2024/01/25 12:43:53;;;;;;;10.27;6.07;;;9.50;89.30;;;;;;5050023;28;20033;-74